Архив погоды в Посьете

Метеограмма Посьет
Четверг, 19 Сентября
Время местн. Темп Ветер Видим Явления Облачность нижн/средн/верх Атм. давл. Влжн Точка росы ВНГО R Сост. почвы Tg s
Напр Скр Прв ур.ст ур.м изм
13:00 +18.5° З 6 13 20 км - ясно 759 762 -0.9 35% +2.6° более 2.5 км - - - -
10:00 +13.4° З 4 - 20 км - ясно 760 763 +0.1 47% +2.4° более 2.5 км - - - -
07:00 +7.1° З,С-З 1 - 20 км - ясно 760 763 -0.5 70% +2.1° более 2.5 км 0 Сухая (без трещин) - -
04:00 +10.3° З 2 - 20 км - ясно 760 764 -0.9 62% +3.3° более 2.5 км - - - -
01:00 +10.7° Ю-З 1 - 20 км - ясно 761 765 +0.2 65% +4.5° более 2.5 км - - - -
Среда, 18 Сентября
Время местн. Темп Ветер Видим Явления Облачность нижн/средн/верх Атм. давл. Влжн Точка росы ВНГО R Сост. почвы Tg s
Напр Скр Прв ур.ст ур.м изм
22:00 +12.4° З 3 - 20 км - ясно 761 765 +1.4 44% +0.6° более 2.5 км - - - -
19:00 +14.7° З 8 15 20 км - незначительная облачность 760 763 +0.5 32% -1.6° 1 км 0 - - -
16:00 +15.3° З,С-З 10 19 20 км - переменная облачность 759 763 +0.1 31% -1.7° 1 км - - - -
13:00 +15.5° З 7 19 20 км - ясно 759 763 +0.1 39% +1.5° более 2.5 км - - - -
10:00 +13.7° З 8 16 20 км - переменная облачность 759 762 +0.5 51% +3.7° более 2.5 км - - - -
07:00 +12.3° З 6 23 20 км - ясно 758 762 +3.4 61% +5° более 2.5 км 0 Сухая (без трещин) +10° -
04:00 +14.5° З 3 - 20 км - преимущественно облачно 755 759 -0.5 90% +12.9° более 2.5 км - - - -
01:00 +15.1° С-В 2 - 20 км - преимущественно облачно 756 759 -1.5 86% +12.7° более 2.5 км - - - -
Вторник, 17 Сентября
Время местн. Темп Ветер Видим Явления Облачность нижн/средн/верх Атм. давл. Влжн Точка росы ВНГО R Сост. почвы Tg s
Напр Скр Прв ур.ст ур.м изм
22:00 +15.9° Ю,Ю-З 2 - 20 км - переменная облачность 757 760 -0.6 82% +12.8° более 2.5 км - - - -
19:00 +16.6° Ю 3 - 20 км - облачно с прояснениями 758 761 -0.7 69% +10.9° более 2.5 км 0 - - -
16:00 +18.8° Ю,Ю-З 3 - 20 км - переменная облачность 758 762 -1.6 54% +9.4° более 2.5 км - - - -
13:00 +17.9° Ю,Ю-З 1 - 20 км - переменная облачность 760 763 -1.4 43% +5.1° более 2.5 км - - - -
10:00 +13.2° З 2 - 20 км - ясно 761 765 +0.5 64% +6.5° более 2.5 км - - - -
07:00 +10° С-З 3 - 20 км - ясно 761 764 +0.3 70% +4.8° более 2.5 км 0 Влажная (без луж) +8° -
04:00 +12.3° З,С-З 3 - 20 км - ясно 760 764 +1.1 72% +7.5° более 2.5 км - - - -
01:00 +14.6° З,С-З 3 - 20 км - ясно 759 763 +1.3 55% +5.6° более 2.5 км - - - -
Понедельник, 16 Сентября
Время местн. Темп Ветер Видим Явления Облачность нижн/средн/верх Атм. давл. Влжн Точка росы ВНГО R Сост. почвы Tg s
Напр Скр Прв ур.ст ур.м изм
22:00 +19.6° С 3 - 20 км - ясно 758 761 +1.5 40% +5.7° более 2.5 км - - - -
19:00 +20.5° В,С-В 1 11 20 км - незначительная облачность 756 760 +1 69% +14.7° 1 км 0 - - -
16:00 +24° З 5 11 20 км - переменная облачность 756 759 -1 48% +12.3° 1 км - - - -
13:00 +22.4° З 4 - 20 км - ясно 756 760 -0.7 60% +14.3° более 2.5 км - - - -
10:00 +16.6° З,С-З 3 - 20 км - ясно 757 761 +0.7 78% +12.8° более 2.5 км - - - -